createdAt,value
2022-12-28T06:40:28.374Z,7.50
2022-12-28T06:43:08.689Z,7.46
2022-12-28T06:45:36.557Z,7.87
2022-12-28T06:48:04.739Z,8.11
2022-12-28T06:50:38.337Z,8.23
2022-12-28T06:53:08.164Z,8.37
2022-12-28T06:55:35.820Z,8.69
2022-12-28T06:58:03.548Z,8.95
2022-12-28T07:00:31.755Z,9.13
2022-12-28T07:02:59.655Z,9.59
2022-12-28T07:05:27.476Z,9.87
2022-12-28T07:07:55.270Z,9.92
2022-12-28T07:10:23.048Z,9.00
2022-12-28T07:12:50.770Z,7.81
2022-12-28T07:15:18.411Z,7.15
2022-12-28T07:17:46.167Z,7.35
2022-12-28T07:20:13.795Z,7.99
2022-12-28T07:22:41.520Z,9.21
2022-12-28T07:25:09.467Z,9.84
2022-12-28T07:27:37.268Z,10.51
2022-12-28T07:30:05.359Z,10.77
2022-12-28T07:32:36.285Z,10.57
2022-12-28T07:35:04.428Z,11.21
2022-12-28T07:37:32.400Z,11.99
2022-12-28T07:40:00.087Z,11.93
2022-12-28T07:42:29.364Z,12.28
2022-12-28T07:44:57.472Z,13.24
2022-12-28T07:47:25.171Z,13.74
2022-12-28T07:49:52.901Z,13.74
2022-12-28T07:52:20.593Z,13.30
2022-12-28T07:54:48.364Z,13.52
2022-12-28T07:57:16.074Z,12.67
2022-12-28T07:59:43.882Z,13.12
2022-12-28T08:02:11.585Z,12.53
2022-12-28T08:04:39.367Z,12.20
2022-12-28T08:07:07.187Z,13.50
2022-12-28T08:09:34.912Z,13.92
2022-12-28T08:12:07.215Z,13.92
2022-12-28T08:14:39.152Z,14.61
2022-12-28T08:17:07.102Z,14.11
2022-12-28T08:19:34.904Z,14.37
2022-12-28T08:22:02.646Z,14.60
2022-12-28T08:24:30.410Z,14.89
2022-12-28T08:26:58.512Z,15.27
2022-12-28T08:29:26.193Z,15.35
2022-12-28T08:31:53.942Z,14.78
2022-12-28T08:34:26.799Z,15.12
2022-12-28T08:36:55.438Z,15.41
2022-12-28T08:39:23.073Z,15.34
2022-12-28T08:41:50.784Z,16.05
2022-12-28T08:44:18.472Z,16.68
2022-12-28T08:46:46.593Z,16.73
2022-12-28T08:49:14.616Z,16.38
2022-12-28T08:51:42.593Z,15.88
2022-12-28T08:54:10.990Z,16.42
2022-12-28T08:56:39.755Z,16.46
2022-12-28T08:59:07.612Z,16.05
2022-12-28T09:01:43.548Z,14.58
2022-12-28T09:04:14.586Z,14.71
2022-12-28T09:06:42.464Z,14.87
2022-12-28T09:09:12.451Z,15.01
2022-12-28T09:11:40.460Z,15.40
2022-12-28T09:14:09.792Z,14.95
2022-12-28T09:16:38.012Z,15.38
2022-12-28T09:19:07.281Z,16.47
2022-12-28T09:21:37.192Z,16.58
2022-12-28T09:24:05.441Z,15.83
2022-12-28T09:26:35.912Z,15.06
2022-12-28T09:29:05.692Z,15.19
2022-12-28T09:31:33.665Z,15.89
2022-12-28T09:36:53.016Z,17.28
2022-12-28T09:39:23.412Z,16.25
2022-12-28T09:41:57.903Z,16.95
2022-12-28T09:44:26.140Z,17.53
2022-12-28T09:47:04.388Z,17.65
2022-12-28T09:50:07.840Z,16.20
2022-12-28T09:52:40.563Z,15.92
2022-12-28T09:55:15.757Z,16.35
2022-12-28T09:57:51.214Z,16.61
2022-12-28T10:00:29.403Z,16.47
2022-12-28T10:03:17.004Z,16.24
2022-12-28T10:05:45.065Z,15.09
2022-12-28T10:08:15.406Z,14.86
2022-12-28T10:10:48.448Z,14.57
2022-12-28T10:13:54.256Z,14.49
2022-12-28T10:16:23.754Z,14.30
2022-12-28T10:18:51.507Z,14.22
2022-12-28T10:21:20.518Z,14.09
2022-12-28T10:24:28.974Z,14.26
2022-12-28T10:26:37.052Z,14.44
2022-12-28T10:29:04.677Z,14.45
2022-12-28T10:31:37.386Z,14.65
2022-12-28T10:34:21.013Z,14.55
2022-12-28T10:36:49.235Z,14.78
2022-12-28T10:39:20.904Z,14.80
2022-12-28T10:41:48.765Z,14.83
2022-12-28T10:44:39.059Z,14.84
2022-12-28T10:47:18.390Z,14.94
2022-12-28T10:50:10.458Z,15.05
2022-12-28T10:52:39.112Z,15.02
2022-12-28T10:55:31.998Z,14.94
2022-12-28T10:58:30.759Z,15.14
2022-12-28T11:01:05.507Z,15.30
2022-12-28T11:03:36.965Z,15.37
2022-12-28T11:06:11.433Z,15.55
2022-12-28T11:08:39.873Z,15.68
2022-12-28T11:11:08.169Z,15.66
2022-12-28T11:13:35.910Z,15.73
2022-12-28T11:16:08.148Z,15.96
2022-12-28T11:18:38.117Z,15.98
2022-12-28T11:21:06.046Z,15.95
2022-12-28T11:23:34.984Z,15.65
2022-12-28T11:26:02.657Z,15.79
2022-12-28T11:28:30.640Z,15.96
2022-12-28T11:31:01.938Z,15.70
2022-12-28T11:33:42.040Z,15.83
2022-12-28T11:36:17.616Z,15.81
2022-12-28T11:38:47.405Z,15.84
2022-12-28T11:41:26.477Z,15.91
2022-12-28T11:44:05.116Z,15.97
2022-12-28T11:46:36.035Z,16.18
2022-12-28T11:49:05.606Z,16.18
2022-12-28T11:51:36.846Z,16.21
2022-12-28T11:54:07.790Z,16.25
2022-12-28T11:56:44.849Z,16.25
2022-12-28T11:59:33.388Z,16.02
2022-12-28T12:02:19.735Z,16.18
2022-12-28T12:04:47.470Z,16.18
2022-12-28T12:07:16.146Z,16.32
2022-12-28T12:09:45.561Z,16.34
2022-12-28T12:12:18.001Z,16.51
2022-12-28T12:14:47.666Z,16.14
2022-12-28T12:17:27.326Z,16.20
2022-12-28T12:19:57.526Z,16.18
2022-12-28T12:22:28.559Z,16.15
2022-12-28T12:25:10.039Z,16.24
2022-12-28T12:27:40.424Z,16.25
2022-12-28T12:30:18.472Z,16.47
2022-12-28T12:33:07.506Z,16.16
2022-12-28T12:35:42.806Z,15.98
2022-12-28T12:38:40.850Z,15.66
2022-12-28T12:41:08.561Z,15.78
2022-12-28T12:43:56.746Z,15.75
2022-12-28T12:46:33.779Z,15.96
2022-12-28T12:49:17.463Z,16.05
2022-12-28T12:52:06.560Z,16.08
2022-12-28T12:54:56.525Z,16.38
2022-12-28T12:57:47.571Z,16.73
2022-12-28T13:00:16.904Z,16.76
2022-12-28T13:03:07.905Z,16.45
2022-12-28T13:05:37.457Z,16.16
2022-12-28T13:08:05.072Z,15.96
2022-12-28T13:10:38.235Z,15.89
2022-12-28T13:13:06.226Z,15.89
2022-12-28T13:15:34.700Z,15.98
2022-12-28T13:21:10.539Z,16.56
2022-12-28T13:23:44.358Z,16.72
2022-12-28T13:26:13.244Z,16.68
2022-12-28T13:29:05.673Z,16.57
2022-12-28T13:31:40.479Z,16.30
2022-12-28T13:34:18.445Z,15.90
2022-12-28T13:36:58.388Z,15.80
2022-12-28T13:39:36.921Z,15.50
2022-12-28T13:42:26.356Z,15.42
2022-12-28T13:44:55.877Z,15.28
2022-12-28T13:47:40.881Z,15.09
2022-12-28T13:50:14.657Z,15.12
2022-12-28T13:52:46.655Z,14.99
2022-12-28T13:55:17.891Z,14.78
2022-12-28T13:57:50.110Z,14.62
2022-12-28T14:00:21.051Z,14.49
2022-12-28T14:02:49.658Z,14.34
2022-12-28T14:05:22.709Z,14.16
2022-12-28T14:07:50.692Z,14.02
2022-12-28T14:10:18.569Z,13.90
2022-12-28T14:12:46.409Z,13.80
2022-12-28T14:15:14.257Z,13.72
2022-12-28T14:17:42.059Z,13.62
2022-12-28T14:20:10.198Z,13.60
2022-12-28T14:22:38.697Z,13.60
2022-12-28T14:25:17.452Z,13.57
2022-12-28T14:27:56.947Z,13.53
2022-12-28T14:30:38.791Z,13.49
2022-12-28T14:33:19.518Z,13.52
2022-12-28T14:35:58.408Z,13.52
2022-12-28T14:38:48.907Z,13.51
2022-12-28T14:41:29.786Z,13.44
2022-12-28T14:43:59.180Z,13.36
2022-12-28T14:46:37.743Z,13.33
2022-12-28T14:49:30.460Z,13.19
2022-12-28T14:52:18.555Z,13.14
2022-12-28T14:54:53.255Z,13.11
2022-12-28T14:57:33.515Z,13.00
2022-12-28T15:00:04.816Z,12.99
2022-12-28T15:02:35.666Z,12.95
2022-12-28T15:05:03.738Z,12.86
2022-12-28T15:07:31.801Z,12.68
2022-12-28T15:09:59.581Z,12.63
2022-12-28T15:12:27.213Z,12.57
2022-12-28T15:14:55.156Z,12.47
2022-12-28T15:17:23.857Z,12.39
2022-12-28T15:19:54.514Z,12.32
2022-12-28T15:22:22.179Z,12.41
2022-12-28T15:24:49.903Z,12.41
2022-12-28T15:27:17.559Z,12.47
2022-12-28T15:30:04.969Z,12.38
2022-12-28T15:32:33.041Z,12.24
2022-12-28T15:35:00.692Z,12.12
2022-12-28T15:37:28.430Z,12.02
2022-12-28T15:39:56.238Z,12.08
2022-12-28T15:42:24.014Z,12.14
2022-12-28T15:44:53.179Z,12.10
2022-12-28T15:47:21.186Z,12.09
2022-12-28T15:49:48.911Z,11.94
2022-12-28T15:52:16.896Z,11.87
2022-12-28T15:54:47.394Z,11.88
2022-12-28T15:57:15.946Z,11.76
2022-12-28T15:59:43.718Z,11.91
2022-12-28T16:02:12.221Z,12.01
2022-12-28T16:04:40.011Z,12.09
2022-12-28T16:07:07.775Z,12.12
2022-12-28T16:09:35.535Z,12.12
2022-12-28T16:12:03.409Z,12.08
2022-12-28T16:14:31.120Z,11.97
2022-12-28T16:16:59.297Z,11.87
2022-12-28T16:19:27.108Z,11.85
2022-12-28T16:21:54.804Z,11.90
2022-12-28T16:24:22.496Z,11.86
2022-12-28T16:26:50.275Z,11.82
2022-12-28T16:29:18.114Z,11.72
